Time;durP1;ratioP1;P1;durP2;ratioP2;P2;SDS_P1;SDS_P2;PMS_P1;PMS_P2;Temp;Humidity;BMP_temperature;BMP_pressure;BME280_temperature;BME280_humidity;BME280_pressure;Samples;Min_cycle;Max_cycle;Signal;HPM_P1;HPM_P2
2021/01/17 00:00:50;;;;;;;19.50;13.50;;;1.80;99.90;;;;;;5095685;28;20410;-72
2021/01/17 00:03:16;;;;;;;20.37;13.87;;;1.80;99.90;;;;;;5111481;28;20775;-72
2021/01/17 00:05:45;;;;;;;19.83;13.80;;;1.80;99.90;;;;;;5113537;27;21114;-73
2021/01/17 00:08:12;;;;;;;22.17;13.10;;;1.70;99.90;;;;;;5113653;28;20900;-72
2021/01/17 00:10:38;;;;;;;17.77;13.20;;;1.80;99.90;;;;;;5113648;28;20429;-73
2021/01/17 00:13:06;;;;;;;21.27;14.90;;;1.70;99.90;;;;;;5112786;28;20829;-73
2021/01/17 00:15:32;;;;;;;20.10;13.80;;;1.70;99.90;;;;;;5113207;28;20406;-72
2021/01/17 00:17:57;;;;;;;17.50;12.30;;;1.70;99.90;;;;;;5113520;28;20414;-73
2021/01/17 00:20:24;;;;;;;20.03;13.73;;;1.70;99.90;;;;;;5113603;28;20509;-73
2021/01/17 00:22:53;;;;;;;20.83;14.37;;;1.60;99.90;;;;;;5111951;28;20255;-72
2021/01/17 00:25:20;;;;;;;19.43;13.37;;;1.50;99.90;;;;;;5113264;28;20413;-73
2021/01/17 00:27:52;;;;;;;21.60;14.13;;;1.50;99.90;;;;;;5113699;28;20409;-74
2021/01/17 00:30:21;;;;;;;23.40;13.53;;;1.40;99.90;;;;;;5113750;28;20879;-72
2021/01/17 00:32:55;;;;;;;23.60;13.83;;;1.50;99.90;;;;;;5113149;27;21010;-72
2021/01/17 00:35:23;;;;;;;19.50;13.07;;;1.50;99.90;;;;;;5092704;28;20442;-73
2021/01/17 00:37:51;;;;;;;21.10;14.43;;;1.50;99.90;;;;;;5093161;28;20878;-73
2021/01/17 00:40:17;;;;;;;20.43;14.40;;;1.60;99.90;;;;;;5093492;28;20399;-74
2021/01/17 00:42:44;;;;;;;23.73;13.97;;;1.60;99.90;;;;;;5093407;27;20422;-73
2021/01/17 00:45:11;;;;;;;18.10;13.90;;;1.60;99.90;;;;;;5093963;28;20425;-73
2021/01/17 00:47:37;;;;;;;20.20;14.30;;;1.40;99.90;;;;;;5092914;28;20927;-72
2021/01/17 00:50:03;;;;;;;18.77;12.67;;;1.30;99.90;;;;;;5093381;28;20169;-73
2021/01/17 00:52:29;;;;;;;22.83;14.80;;;1.10;99.90;;;;;;5092954;28;20179;-73
2021/01/17 00:54:54;;;;;;;20.30;14.40;;;1.00;99.90;;;;;;5098116;28;20413;-73
2021/01/17 00:57:20;;;;;;;20.47;13.87;;;0.90;99.90;;;;;;5113258;28;20550;-73
2021/01/17 00:59:45;;;;;;;20.33;14.10;;;0.80;99.90;;;;;;5113772;28;20169;-73
2021/01/17 01:02:11;;;;;;;20.30;13.53;;;0.80;99.90;;;;;;5113096;28;20200;-72
2021/01/17 01:04:36;;;;;;;24.30;15.50;;;0.80;99.90;;;;;;5126583;27;20184;-72
2021/01/17 01:07:03;;;;;;;19.70;14.30;;;0.80;99.90;;;;;;5124189;28;20294;-73
2021/01/17 01:09:28;;;;;;;22.23;14.98;;;1.00;99.90;;;;;;5114573;28;20172;-73
2021/01/17 01:11:54;;;;;;;22.60;15.77;;;1.00;99.90;;;;;;5129319;28;20236;-73
2021/01/17 01:14:19;;;;;;;23.87;15.47;;;1.10;99.90;;;;;;5133699;27;20243;-74
2021/01/17 01:16:52;;;;;;;21.63;15.57;;;1.10;99.90;;;;;;5112739;28;20239;-73
2021/01/17 01:19:18;;;;;;;22.10;14.43;;;1.20;99.90;;;;;;5096561;28;20173;-72
2021/01/17 01:21:44;;;;;;;19.57;14.20;;;1.20;99.90;;;;;;5096663;28;20413;-74
2021/01/17 01:24:09;;;;;;;25.57;15.87;;;1.30;99.90;;;;;;5096366;28;20482;-73
2021/01/17 01:26:40;;;;;;;22.60;15.60;;;1.30;99.90;;;;;;5098121;28;20201;-73
2021/01/17 01:29:08;;;;;;;22.70;15.30;;;1.30;99.90;;;;;;5116366;28;20203;-73
2021/01/17 01:31:35;;;;;;;26.07;16.23;;;1.40;99.90;;;;;;5115236;28;20433;-73
2021/01/17 01:34:02;;;;;;;26.30;15.90;;;1.40;99.90;;;;;;5115835;27;20462;-73
2021/01/17 01:36:34;;;;;;;23.53;15.27;;;1.40;99.90;;;;;;5116208;28;20514;-73
2021/01/17 01:38:59;;;;;;;23.93;16.20;;;1.40;99.90;;;;;;5099696;28;20422;-73
2021/01/17 01:41:42;;;;;;;20.90;14.60;;;1.50;99.90;;;;;;5097182;28;20452;-72
2021/01/17 01:44:09;;;;;;;21.85;15.65;;;1.50;99.90;;;;;;5096298;28;20183;-73
2021/01/17 01:46:38;;;;;;;22.50;15.50;;;1.60;99.90;;;;;;5100583;27;20204;-73
2021/01/17 01:49:05;;;;;;;21.13;15.60;;;1.60;99.90;;;;;;5110706;28;20414;-72
2021/01/17 01:51:31;;;;;;;20.17;13.53;;;1.50;99.90;;;;;;5116088;28;20429;-73
2021/01/17 01:53:58;;;;;;;23.07;15.57;;;1.50;99.90;;;;;;5116278;28;20417;-74
2021/01/17 01:56:24;;;;;;;23.73;17.07;;;1.40;99.90;;;;;;5116547;28;20549;-73
2021/01/17 01:58:55;;;;;;;22.43;15.10;;;1.40;99.90;;;;;;5114674;27;20564;-73
2021/01/17 02:01:22;;;;;;;20.10;14.03;;;1.50;99.90;;;;;;5096025;28;20411;-73
2021/01/17 02:03:49;;;;;;;22.07;15.20;;;1.50;99.90;;;;;;5107941;27;20437;-73
2021/01/17 02:06:25;;;;;;;23.13;14.70;;;1.60;99.90;;;;;;5116290;28;20525;-73
2021/01/17 02:09:02;;;;;;;23.83;16.20;;;1.50;99.90;;;;;;5116490;28;20425;-73
2021/01/17 02:11:33;;;;;;;23.10;15.77;;;1.50;99.90;;;;;;5106590;28;20414;-72
2021/01/17 02:14:31;;;;;;;23.30;14.73;;;1.50;99.90;;;;;;5095733;28;20494;-73
2021/01/17 02:16:59;;;;;;;23.20;15.43;;;1.50;99.90;;;;;;5092123;28;20846;-72
2021/01/17 02:19:30;;;;;;;23.77;15.73;;;1.50;99.90;;;;;;5095948;27;20931;-73
2021/01/17 02:21:59;;;;;;;23.17;15.83;;;1.50;99.90;;;;;;5095249;28;20947;-73
2021/01/17 02:24:38;;;;;;;22.27;15.30;;;1.50;99.90;;;;;;5095144;28;20407;-73
2021/01/17 02:27:04;;;;;;;22.70;14.53;;;1.40;99.90;;;;;;5095719;28;20784;-73
2021/01/17 02:29:30;;;;;;;23.63;14.60;;;1.50;99.90;;;;;;5098297;28;20478;-72
2021/01/17 02:31:59;;;;;;;23.70;15.60;;;1.50;99.90;;;;;;5101161;27;20821;-74
2021/01/17 02:34:26;;;;;;;23.00;14.70;;;1.50;99.90;;;;;;5094805;28;20200;-72
2021/01/17 02:37:03;;;;;;;24.07;15.23;;;1.50;99.90;;;;;;5095066;28;20451;-73
2021/01/17 02:39:47;;;;;;;23.43;15.00;;;1.60;99.90;;;;;;5095223;28;20403;-73
2021/01/17 02:42:15;;;;;;;22.47;14.80;;;1.60;99.90;;;;;;5096471;28;20411;-73
2021/01/17 02:44:42;;;;;;;23.20;14.37;;;1.60;99.90;;;;;;5094929;28;20491;-73
2021/01/17 02:47:07;;;;;;;24.07;15.63;;;1.50;99.90;;;;;;5095231;28;20469;-73
2021/01/17 02:49:33;;;;;;;22.93;14.77;;;1.40;99.90;;;;;;5094858;28;20417;-73
2021/01/17 02:52:04;;;;;;;23.87;16.83;;;1.30;99.90;;;;;;5095608;27;20195;-72
2021/01/17 02:54:31;;;;;;;21.50;15.20;;;1.20;99.90;;;;;;5094899;28;20180;-73
2021/01/17 02:57:02;;;;;;;23.20;15.00;;;1.10;99.90;;;;;;5094926;28;20549;-73
2021/01/17 02:59:33;;;;;;;23.50;14.30;;;1.10;99.90;;;;;;5094847;28;20403;-73
2021/01/17 03:02:02;;;;;;;26.43;14.50;;;1.20;99.90;;;;;;5094719;28;20402;-73
2021/01/17 03:04:46;;;;;;;21.03;14.90;;;1.30;99.90;;;;;;5092491;27;20451;-73
2021/01/17 03:07:13;;;;;;;21.67;15.83;;;1.40;99.90;;;;;;5094521;28;20431;-73
2021/01/17 03:09:42;;;;;;;22.80;15.15;;;1.40;99.90;;;;;;5094390;28;20407;-71
2021/01/17 03:12:08;;;;;;;21.97;15.07;;;1.30;99.90;;;;;;5094329;28;20173;-72
2021/01/17 03:14:38;;;;;;;22.30;15.07;;;1.40;99.90;;;;;;5107271;27;20509;-73
2021/01/17 03:17:06;;;;;;;23.17;15.77;;;1.40;99.90;;;;;;5114452;28;20472;-73
2021/01/17 03:19:31;;;;;;;26.87;15.90;;;1.40;99.90;;;;;;5114290;28;20467;-72
2021/01/17 03:21:57;;;;;;;27.07;15.50;;;1.40;99.90;;;;;;5114288;28;20402;-73
2021/01/17 03:24:23;;;;;;;23.20;14.57;;;1.50;99.90;;;;;;5107788;28;20169;-71
2021/01/17 03:26:49;;;;;;;25.30;15.60;;;1.50;99.90;;;;;;5094273;28;20857;-73
2021/01/17 03:29:15;;;;;;;25.53;14.93;;;1.60;99.90;;;;;;5094059;28;20183;-72
2021/01/17 03:31:40;;;;;;;22.83;15.57;;;1.60;99.90;;;;;;5093997;28;20506;-73
2021/01/17 03:34:06;;;;;;;30.77;17.93;;;1.60;99.90;;;;;;5092720;28;20249;-73
2021/01/17 03:36:31;;;;;;;21.63;14.70;;;1.60;99.90;;;;;;5112229;28;20215;-73
2021/01/17 03:38:57;;;;;;;24.27;16.47;;;1.60;99.90;;;;;;5114331;28;20248;-73
2021/01/17 03:41:26;;;;;;;25.10;16.90;;;1.70;99.90;;;;;;5114512;28;20175;-73
2021/01/17 03:43:52;;;;;;;23.87;15.53;;;1.70;99.90;;;;;;5114172;27;20188;-73
2021/01/17 03:46:18;;;;;;;24.83;15.90;;;1.70;99.90;;;;;;5112327;28;20563;-73
2021/01/17 03:48:44;;;;;;;25.50;15.60;;;1.70;99.90;;;;;;5114093;28;20402;-73
2021/01/17 03:51:09;;;;;;;24.90;15.50;;;1.80;99.90;;;;;;5114237;28;20425;-73
2021/01/17 03:53:35;;;;;;;25.43;15.60;;;1.80;99.90;;;;;;5114218;28;20179;-72
2021/01/17 03:56:00;;;;;;;24.33;17.10;;;1.80;99.90;;;;;;5110545;28;20596;-72
2021/01/17 03:58:26;;;;;;;29.43;17.57;;;1.80;99.90;;;;;;5095630;28;20532;-73
2021/01/17 04:00:52;;;;;;;26.87;16.20;;;1.80;99.90;;;;;;5096272;27;20195;-72
2021/01/17 04:03:17;;;;;;;24.83;16.67;;;1.90;99.90;;;;;;5103204;28;20188;-73
2021/01/17 04:05:43;;;;;;;27.13;16.10;;;1.90;99.90;;;;;;5114257;28;20627;-73
2021/01/17 04:08:08;;;;;;;26.47;16.33;;;1.90;99.90;;;;;;5097427;28;20218;-73
2021/01/17 04:10:34;;;;;;;24.67;16.77;;;1.90;99.90;;;;;;5093997;28;20247;-73
2021/01/17 04:12:59;;;;;;;24.60;15.60;;;1.90;99.90;;;;;;5094319;28;20200;-72
2021/01/17 04:15:25;;;;;;;26.30;16.00;;;1.90;99.90;;;;;;5093779;28;20181;-73
2021/01/17 04:17:51;;;;;;;23.37;16.60;;;1.80;99.90;;;;;;5100381;28;20661;-72
2021/01/17 04:20:16;;;;;;;27.60;16.57;;;1.60;99.90;;;;;;5113983;28;20630;-73
2021/01/17 04:22:42;;;;;;;29.20;17.60;;;1.60;99.90;;;;;;5114092;28;20168;-73
2021/01/17 04:25:08;;;;;;;26.70;17.60;;;1.60;99.90;;;;;;5113434;28;20164;-73
2021/01/17 04:27:33;;;;;;;26.27;16.20;;;1.60;99.90;;;;;;5113026;28;20188;-73
2021/01/17 04:29:59;;;;;;;28.43;18.90;;;1.60;99.90;;;;;;5113548;28;20952;-72
2021/01/17 04:32:25;;;;;;;28.80;18.77;;;1.60;99.90;;;;;;5113004;27;20660;-73
2021/01/17 04:34:51;;;;;;;31.07;18.67;;;1.50;99.90;;;;;;5113698;28;20188;-73
2021/01/17 04:37:23;;;;;;;34.10;18.07;;;1.50;99.90;;;;;;5120133;28;20938;-73
2021/01/17 04:39:49;;;;;;;30.07;18.33;;;1.60;99.90;;;;;;5110298;28;20421;-72
2021/01/17 04:42:19;;;;;;;27.67;17.70;;;1.60;99.90;;;;;;5096182;28;20904;-73
2021/01/17 04:44:53;;;;;;;30.00;18.00;;;1.60;99.90;;;;;;5104906;28;20176;-73
2021/01/17 04:47:21;;;;;;;33.70;20.27;;;1.70;99.90;;;;;;5109857;28;20441;-73
2021/01/17 04:49:51;;;;;;;30.10;18.47;;;1.70;99.90;;;;;;5106786;28;20437;-73
2021/01/17 04:52:20;;;;;;;30.00;17.77;;;1.80;99.90;;;;;;5117448;27;20837;-73
2021/01/17 04:54:46;;;;;;;33.73;18.87;;;1.80;99.90;;;;;;5116144;28;20402;-73
2021/01/17 04:57:21;;;;;;;29.90;18.70;;;1.70;99.90;;;;;;5117123;28;20457;-73
2021/01/17 04:59:52;;;;;;;31.90;20.67;;;1.60;99.90;;;;;;5116005;28;20168;-73
2021/01/17 05:02:48;;;;;;;35.63;19.50;;;1.50;99.90;;;;;;5122519;27;20426;-73
2021/01/17 05:05:20;;;;;;;31.70;18.97;;;1.50;99.90;;;;;;5124134;28;20424;-73
2021/01/17 05:08:24;;;;;;;32.33;19.53;;;1.50;99.90;;;;;;5117450;28;20764;-73
2021/01/17 05:11:01;;;;;;;35.93;19.93;;;1.50;99.90;;;;;;5115911;28;20537;-73
2021/01/17 05:13:47;;;;;;;33.20;18.80;;;1.40;99.90;;;;;;5117642;28;20402;-73
2021/01/17 05:16:15;;;;;;;33.70;19.67;;;1.40;99.90;;;;;;5117838;28;20456;-73
2021/01/17 05:18:47;;;;;;;31.40;18.57;;;1.50;99.90;;;;;;5117730;27;20406;-73
2021/01/17 05:21:19;;;;;;;30.38;17.95;;;1.50;99.90;;;;;;5115225;28;20820;-73
2021/01/17 05:23:46;;;;;;;35.23;20.23;;;1.50;99.90;;;;;;5117231;28;20199;-73
2021/01/17 05:26:13;;;;;;;37.22;21.45;;;1.60;99.90;;;;;;5118291;28;20418;-73
2021/01/17 05:28:38;;;;;;;31.90;20.00;;;1.60;99.90;;;;;;5125247;28;20167;-73
2021/01/17 05:31:04;;;;;;;32.43;19.57;;;1.70;99.90;;;;;;5117188;28;20417;-73
2021/01/17 05:33:31;;;;;;;34.77;20.80;;;1.70;99.90;;;;;;5100115;28;20248;-73
2021/01/17 05:35:58;;;;;;;33.27;19.53;;;1.80;99.90;;;;;;5096413;27;20209;-73
2021/01/17 05:38:24;;;;;;;35.93;19.00;;;1.70;99.90;;;;;;5096377;28;20439;-73
2021/01/17 05:40:50;;;;;;;32.77;19.80;;;1.70;99.90;;;;;;5096078;28;20449;-73
2021/01/17 05:43:15;;;;;;;32.37;19.27;;;1.70;99.90;;;;;;5097029;28;20173;-73
2021/01/17 05:45:41;;;;;;;37.73;19.50;;;1.70;99.90;;;;;;5095599;27;20209;-73
2021/01/17 05:48:07;;;;;;;37.60;20.30;;;1.70;99.90;;;;;;5104786;28;20183;-73
2021/01/17 05:50:35;;;;;;;33.87;20.27;;;1.70;99.90;;;;;;5116203;28;20168;-73
2021/01/17 05:53:04;;;;;;;32.37;18.33;;;1.70;99.90;;;;;;5114818;28;20184;-73
2021/01/17 05:55:33;;;;;;;32.07;19.23;;;1.80;99.90;;;;;;5116291;28;20911;-73
2021/01/17 05:58:23;;;;;;;29.00;17.63;;;1.90;99.90;;;;;;5111206;27;20456;-73
2021/01/17 06:00:52;;;;;;;32.83;18.13;;;1.90;99.90;;;;;;5089629;28;20419;-73
2021/01/17 06:03:24;;;;;;;35.27;19.20;;;1.90;99.90;;;;;;5104657;28;20784;-73
2021/01/17 06:05:51;;;;;;;33.07;18.93;;;1.80;99.90;;;;;;5115801;28;20422;-73
2021/01/17 06:08:19;;;;;;;33.07;19.13;;;1.90;99.90;;;;;;5115369;28;20406;-73
2021/01/17 06:10:46;;;;;;;36.83;19.17;;;1.90;99.90;;;;;;5095419;27;20443;-71
2021/01/17 06:13:20;;;;;;;36.13;20.80;;;1.90;99.90;;;;;;5095546;28;20411;-73
2021/01/17 06:15:46;;;;;;;32.93;18.40;;;1.90;99.90;;;;;;5095164;28;20916;-73
2021/01/17 06:18:20;;;;;;;34.00;19.17;;;1.90;99.90;;;;;;5108455;28;20459;-73
2021/01/17 06:20:47;;;;;;;32.97;19.43;;;1.80;99.90;;;;;;5115887;28;20168;-73
2021/01/17 06:23:19;;;;;;;33.80;19.70;;;1.90;99.90;;;;;;5115914;27;20429;-73
2021/01/17 06:25:46;;;;;;;32.87;19.90;;;1.80;99.90;;;;;;5115437;28;20463;-73
2021/01/17 06:28:14;;;;;;;36.17;21.00;;;1.80;99.90;;;;;;5112813;28;20420;-73
2021/01/17 06:30:41;;;;;;;38.90;20.70;;;1.80;99.90;;;;;;5115704;28;20402;-73
2021/01/17 06:33:07;;;;;;;42.87;21.77;;;1.90;99.90;;;;;;5115498;28;20747;-74
2021/01/17 06:35:34;;;;;;;35.97;20.10;;;1.90;99.90;;;;;;5113991;28;20410;-73
2021/01/17 06:38:22;;;;;;;39.73;20.83;;;1.80;99.90;;;;;;5113772;28;20460;-73
2021/01/17 06:40:48;;;;;;;35.03;20.40;;;1.90;99.90;;;;;;5097555;28;20423;-73
2021/01/17 06:43:15;;;;;;;39.40;20.13;;;1.80;99.90;;;;;;5100042;28;20425;-73
2021/01/17 06:45:45;;;;;;;37.63;20.17;;;1.80;99.90;;;;;;5115236;28;20426;-73
2021/01/17 06:48:25;;;;;;;40.33;21.53;;;1.80;99.90;;;;;;5115515;28;20479;-73
2021/01/17 06:50:51;;;;;;;32.67;19.87;;;1.70;99.90;;;;;;5114365;28;20418;-73
2021/01/17 06:53:24;;;;;;;33.20;19.73;;;1.70;99.90;;;;;;5114916;27;20501;-73
2021/01/17 06:56:14;;;;;;;36.50;20.07;;;1.70;99.90;;;;;;5114666;28;20434;-73
2021/01/17 06:58:40;;;;;;;36.90;20.97;;;1.60;99.90;;;;;;5115433;28;20410;-73
2021/01/17 07:01:06;;;;;;;33.83;20.00;;;1.60;99.90;;;;;;5103151;28;20465;-73
2021/01/17 07:03:49;;;;;;;39.63;19.57;;;1.60;99.90;;;;;;5104243;27;20474;-73
2021/01/17 07:06:45;;;;;;;41.87;20.17;;;1.70;99.90;;;;;;5093674;28;20454;-73
2021/01/17 07:09:25;;;;;;;37.70;18.77;;;1.70;99.90;;;;;;5094286;28;20903;-73
2021/01/17 07:12:26;;;;;;;34.70;18.80;;;1.80;99.90;;;;;;5094160;28;20445;-73
2021/01/17 07:15:08;;;;;;;40.00;19.00;;;1.80;99.90;;;;;;5062295;28;20415;-73
2021/01/17 07:17:42;;;;;;;31.80;19.20;;;1.90;99.90;;;;;;5095251;28;20802;-73
2021/01/17 07:20:13;;;;;;;34.73;19.43;;;1.90;99.90;;;;;;5093127;28;20419;-73
2021/01/17 07:22:42;;;;;;;32.43;17.80;;;1.80;99.90;;;;;;5094115;28;20407;-72
2021/01/17 07:25:09;;;;;;;36.17;18.37;;;1.80;99.90;;;;;;5093804;27;20431;-73
2021/01/17 07:27:54;;;;;;;33.33;18.73;;;1.80;99.90;;;;;;5094384;28;20802;-73
2021/01/17 07:30:33;;;;;;;31.23;17.83;;;1.70;99.90;;;;;;5094126;28;20411;-73
2021/01/17 07:33:03;;;;;;;31.60;17.97;;;1.80;99.90;;;;;;5096087;28;20832;-73
2021/01/17 07:35:34;;;;;;;32.77;19.50;;;1.80;99.90;;;;;;5093549;28;20911;-73
2021/01/17 07:38:07;;;;;;;36.50;19.07;;;1.80;99.90;;;;;;5093777;27;20486;-73
2021/01/17 07:40:49;;;;;;;31.97;16.63;;;1.90;99.90;;;;;;5095419;28;20423;-73
2021/01/17 07:43:16;;;;;;;31.83;17.43;;;1.90;99.90;;;;;;5094326;28;20450;-73
2021/01/17 07:45:42;;;;;;;34.27;20.93;;;1.90;99.90;;;;;;5093419;28;20530;-73
2021/01/17 07:48:11;;;;;;;36.77;18.83;;;1.90;99.90;;;;;;5093284;27;20469;-73
2021/01/17 07:50:42;;;;;;;34.00;19.47;;;1.80;99.90;;;;;;5095020;28;20441;-73
2021/01/17 07:53:37;;;;;;;34.40;18.83;;;1.90;99.90;;;;;;5093660;28;20872;-73
2021/01/17 07:56:03;;;;;;;34.90;19.50;;;1.90;99.90;;;;;;5092622;28;20915;-73
2021/01/17 07:58:36;;;;;;;31.90;18.00;;;2.00;99.90;;;;;;5093978;28;20442;-72
2021/01/17 08:01:02;;;;;;;35.90;18.07;;;2.00;99.90;;;;;;5095117;28;20415;-73
2021/01/17 08:03:27;;;;;;;33.80;18.47;;;2.10;99.90;;;;;;5098296;28;20436;-73
2021/01/17 08:05:57;;;;;;;33.00;18.00;;;2.00;99.90;;;;;;5113696;27;20196;-73
2021/01/17 08:08:34;;;;;;;31.57;17.90;;;2.00;99.90;;;;;;5113933;28;20167;-73
2021/01/17 08:11:01;;;;;;;36.03;18.80;;;1.90;99.90;;;;;;5118947;28;20414;-73
2021/01/17 08:13:32;;;;;;;30.77;17.67;;;2.00;99.90;;;;;;5112129;28;20415;-73
2021/01/17 08:16:11;;;;;;;32.93;17.87;;;2.00;99.90;;;;;;5105605;28;20754;-73
2021/01/17 08:18:38;;;;;;;33.13;17.80;;;2.00;99.90;;;;;;5106001;28;20483;-73
2021/01/17 08:21:22;;;;;;;34.97;18.57;;;2.00;99.90;;;;;;5127946;27;20425;-73
2021/01/17 08:24:12;;;;;;;37.43;18.40;;;1.90;99.90;;;;;;5098820;28;20408;-73
2021/01/17 08:27:00;;;;;;;32.70;16.90;;;1.80;99.90;;;;;;5097594;28;20745;-73
2021/01/17 08:29:27;;;;;;;32.80;18.83;;;1.80;99.90;;;;;;5097259;28;20421;-73
2021/01/17 08:31:52;;;;;;;32.60;17.90;;;1.80;99.90;;;;;;5098872;28;20199;-74
2021/01/17 08:34:28;;;;;;;29.50;17.63;;;1.80;99.90;;;;;;5117488;27;20458;-74
2021/01/17 08:36:56;;;;;;;32.80;17.40;;;1.90;99.90;;;;;;5117487;28;20317;-73
2021/01/17 08:39:42;;;;;;;31.93;18.30;;;1.90;99.90;;;;;;5118169;28;20871;-72
2021/01/17 08:42:31;;;;;;;36.43;18.30;;;2.00;99.90;;;;;;5118287;28;20723;-73
2021/01/17 08:44:58;;;;;;;34.47;17.97;;;2.00;99.90;;;;;;5117914;28;20412;-73
2021/01/17 08:47:24;;;;;;;25.37;15.90;;;2.10;99.90;;;;;;5115821;27;20799;-72
2021/01/17 08:49:50;;;;;;;33.43;17.73;;;2.20;99.90;;;;;;5117847;28;20398;-72
2021/01/17 08:52:26;;;;;;;32.00;17.40;;;2.20;99.90;;;;;;5117410;28;20478;-73
2021/01/17 08:54:52;;;;;;;31.37;16.30;;;2.30;99.90;;;;;;5113462;28;20499;-72
2021/01/17 08:57:43;;;;;;;31.37;15.83;;;2.20;99.90;;;;;;5117621;28;20916;-72
2021/01/17 09:00:11;;;;;;;21.80;14.53;;;2.30;99.90;;;;;;5117276;28;20955;-74
2021/01/17 09:02:37;;;;;;;28.30;16.57;;;2.30;99.90;;;;;;5117149;28;20398;-72
2021/01/17 09:05:04;;;;;;;26.13;16.20;;;2.40;99.90;;;;;;5103919;28;20575;-73
2021/01/17 09:07:41;;;;;;;25.80;15.83;;;2.40;99.90;;;;;;5097470;28;20560;-72
2021/01/17 09:10:08;;;;;;;31.63;17.90;;;2.40;99.90;;;;;;5098479;28;20470;-73
2021/01/17 09:12:35;;;;;;;30.70;16.97;;;2.30;99.90;;;;;;5098444;28;20556;-72
2021/01/17 09:15:16;;;;;;;31.27;16.07;;;2.20;99.90;;;;;;5097135;28;20422;-73
2021/01/17 09:17:44;;;;;;;29.27;17.67;;;2.30;99.90;;;;;;5096366;27;20474;-73
2021/01/17 09:20:15;;;;;;;29.73;17.83;;;2.20;99.90;;;;;;5110031;28;20425;-72
2021/01/17 09:22:44;;;;;;;31.17;18.10;;;2.20;99.90;;;;;;5117179;28;20421;-73
2021/01/17 09:25:11;;;;;;;31.80;18.03;;;2.30;99.90;;;;;;5115413;28;20909;-73
2021/01/17 09:27:38;;;;;;;28.97;17.00;;;2.30;99.90;;;;;;5116505;28;20454;-72
2021/01/17 09:30:06;;;;;;;29.53;16.13;;;2.40;99.90;;;;;;5117284;27;20467;-72
2021/01/17 09:32:33;;;;;;;27.90;16.50;;;2.50;99.90;;;;;;5115982;28;20784;-72
2021/01/17 09:35:04;;;;;;;31.73;18.00;;;2.60;99.90;;;;;;5115636;27;20434;-72
2021/01/17 09:37:33;;;;;;;28.30;16.33;;;2.70;99.90;;;;;;5113496;28;20540;-73
2021/01/17 09:40:00;;;;;;;26.60;17.23;;;2.70;99.90;;;;;;5108637;27;20452;-73
2021/01/17 09:42:26;;;;;;;26.70;16.10;;;2.70;99.90;;;;;;5116121;27;20732;-72
2021/01/17 09:44:57;;;;;;;31.70;16.80;;;2.70;99.90;;;;;;5116149;27;20417;-72
2021/01/17 09:47:25;;;;;;;33.10;18.63;;;2.60;99.90;;;;;;5106120;27;20769;-72
2021/01/17 09:49:51;;;;;;;29.93;18.90;;;2.60;99.90;;;;;;5097199;28;20884;-72
2021/01/17 09:52:18;;;;;;;28.73;18.03;;;2.60;99.90;;;;;;5095029;28;20413;-72
2021/01/17 09:54:52;;;;;;;33.87;16.97;;;2.50;99.90;;;;;;5095724;28;20177;-73
2021/01/17 09:57:27;;;;;;;26.07;16.10;;;2.60;99.90;;;;;;5095887;28;20950;-72
2021/01/17 09:59:54;;;;;;;25.53;15.30;;;2.70;99.90;;;;;;5114288;27;20483;-73
2021/01/17 10:02:20;;;;;;;28.90;17.73;;;2.80;99.90;;;;;;5097827;27;20429;-72
2021/01/17 10:04:46;;;;;;;24.80;14.73;;;2.90;99.90;;;;;;5116936;27;20449;-73
2021/01/17 10:07:17;;;;;;;25.33;16.10;;;3.00;99.90;;;;;;5119461;27;20449;-71
2021/01/17 10:09:44;;;;;;;26.93;16.90;;;3.10;99.90;;;;;;5114470;27;20442;-72
2021/01/17 10:12:11;;;;;;;29.10;17.20;;;3.20;99.90;;;;;;5123427;27;20405;-72
2021/01/17 10:14:37;;;;;;;30.60;17.40;;;3.20;99.90;;;;;;5121525;27;20425;-72
2021/01/17 10:17:09;;;;;;;30.60;16.80;;;3.30;99.90;;;;;;5132559;27;20450;-74
2021/01/17 10:19:40;;;;;;;28.67;16.60;;;3.30;99.90;;;;;;5113476;27;20411;-72
2021/01/17 10:22:14;;;;;;;27.10;17.10;;;3.30;99.90;;;;;;5109064;27;20423;-73
2021/01/17 10:24:40;;;;;;;28.47;17.07;;;3.40;99.90;;;;;;5133756;27;20433;-72
2021/01/17 10:27:08;;;;;;;28.70;16.87;;;3.40;99.90;;;;;;5127121;27;20430;-73
2021/01/17 10:29:36;;;;;;;26.50;17.20;;;3.50;99.90;;;;;;5124170;27;20450;-74
2021/01/17 10:32:12;;;;;;;23.57;15.93;;;3.50;99.90;;;;;;5135669;27;20749;-72
2021/01/17 10:34:45;;;;;;;27.17;16.70;;;3.50;99.90;;;;;;5127386;27;20460;-72
2021/01/17 10:37:14;;;;;;;27.43;16.87;;;3.50;99.90;;;;;;5115764;28;20478;-72
2021/01/17 10:39:41;;;;;;;27.47;16.10;;;3.50;99.90;;;;;;5110794;27;20428;-72
2021/01/17 10:42:11;;;;;;;27.43;16.33;;;3.50;99.90;;;;;;5129934;27;20462;-73
2021/01/17 10:44:51;;;;;;;27.43;16.93;;;3.50;99.90;;;;;;5135068;27;20781;-72
2021/01/17 10:47:45;;;;;;;28.43;17.10;;;3.60;99.90;;;;;;5127415;27;20455;-72
2021/01/17 10:50:13;;;;;;;23.00;15.70;;;3.60;99.90;;;;;;5111021;27;20457;-73
2021/01/17 10:53:01;;;;;;;24.43;16.77;;;3.70;99.90;;;;;;5135916;27;20415;-72
2021/01/17 10:55:37;;;;;;;31.40;17.43;;;3.70;99.90;;;;;;5129989;27;20497;-73
2021/01/17 10:58:04;;;;;;;25.53;15.67;;;3.60;99.90;;;;;;5121387;27;20490;-73
2021/01/17 11:00:30;;;;;;;26.67;16.33;;;3.40;99.90;;;;;;5124304;27;20447;-73
2021/01/17 11:03:04;;;;;;;28.20;15.93;;;3.40;99.90;;;;;;5119667;27;20481;-73
2021/01/17 11:05:30;;;;;;;25.60;16.00;;;3.50;99.90;;;;;;5116739;27;20401;-73
2021/01/17 11:07:55;;;;;;;23.97;15.67;;;3.40;99.90;;;;;;5134908;27;20414;-73
2021/01/17 11:10:21;;;;;;;27.07;17.37;;;3.50;99.90;;;;;;5135881;27;20221;-72
2021/01/17 11:12:47;;;;;;;24.13;15.97;;;3.50;99.90;;;;;;5129603;27;20194;-72
2021/01/17 11:15:15;;;;;;;23.80;16.07;;;3.40;99.90;;;;;;5118459;27;20412;-73
2021/01/17 11:17:42;;;;;;;25.17;15.70;;;3.50;99.90;;;;;;5125191;27;20190;-73
2021/01/17 11:20:09;;;;;;;23.83;15.47;;;3.50;99.90;;;;;;5135836;27;20410;-73
2021/01/17 11:22:36;;;;;;;25.27;15.77;;;3.50;99.90;;;;;;5123477;27;20418;-73
2021/01/17 11:25:16;;;;;;;23.63;15.63;;;3.60;99.90;;;;;;5121765;27;20421;-72
2021/01/17 11:27:41;;;;;;;24.83;14.47;;;3.60;99.90;;;;;;5104559;27;20414;-72
2021/01/17 11:30:07;;;;;;;21.47;14.47;;;3.70;99.90;;;;;;5120833;27;20915;-73
2021/01/17 11:32:36;;;;;;;21.83;15.30;;;3.80;99.90;;;;;;5113396;27;20174;-72
2021/01/17 11:35:03;;;;;;;21.13;13.47;;;3.90;99.90;;;;;;5114715;28;20427;-74
2021/01/17 11:37:37;;;;;;;25.37;15.63;;;4.00;99.90;;;;;;5134793;27;20551;-72
2021/01/17 11:40:10;;;;;;;21.17;14.67;;;4.00;99.90;;;;;;5116553;28;20498;-72
2021/01/17 11:42:36;;;;;;;20.27;13.00;;;3.90;99.90;;;;;;5131537;27;20748;-73
2021/01/17 11:45:16;;;;;;;22.17;14.23;;;3.80;99.90;;;;;;5130043;27;20412;-73
2021/01/17 11:47:43;;;;;;;23.47;14.90;;;3.80;99.90;;;;;;5125631;27;20176;-73
2021/01/17 11:50:19;;;;;;;25.10;15.40;;;3.90;99.90;;;;;;5150316;27;20414;-73
2021/01/17 11:53:02;;;;;;;21.90;14.23;;;3.80;99.90;;;;;;5131814;27;20449;-74
2021/01/17 11:55:29;;;;;;;21.80;14.63;;;3.80;99.90;;;;;;5109287;28;20421;-73
2021/01/17 11:58:17;;;;;;;24.17;14.67;;;3.90;99.90;;;;;;5136240;28;20468;-73
2021/01/17 12:01:01;;;;;;;19.83;12.83;;;4.00;99.90;;;;;;5142978;28;20416;-72
2021/01/17 12:03:28;;;;;;;19.13;13.13;;;4.00;99.90;;;;;;5147079;27;20457;-72
2021/01/17 12:06:09;;;;;;;17.87;12.63;;;4.10;99.90;;;;;;5101436;27;20461;-73
2021/01/17 12:09:04;;;;;;;20.80;12.93;;;4.10;99.90;;;;;;5117465;28;20464;-72
2021/01/17 12:11:39;;;;;;;20.67;12.83;;;4.10;99.90;;;;;;5115344;28;20940;-73
2021/01/17 12:14:22;;;;;;;17.80;12.63;;;4.20;99.90;;;;;;5113218;28;20419;-73
2021/01/17 12:16:57;;;;;;;20.60;13.80;;;4.20;99.90;;;;;;5127269;27;20456;-73
2021/01/17 12:19:25;;;;;;;19.03;12.33;;;4.20;99.90;;;;;;5125476;27;20398;-72
2021/01/17 12:21:56;;;;;;;22.87;14.30;;;4.20;99.90;;;;;;5121797;27;20525;-72
2021/01/17 12:24:21;;;;;;;21.70;14.40;;;4.20;99.90;;;;;;5119591;28;20834;-72
2021/01/17 12:26:48;;;;;;;22.90;14.60;;;4.20;99.90;;;;;;5123101;27;20459;-72
2021/01/17 12:29:14;;;;;;;23.97;14.10;;;4.20;99.90;;;;;;5130976;27;20257;-72
2021/01/17 12:31:41;;;;;;;26.60;14.80;;;4.20;99.90;;;;;;5118183;27;20406;-72
2021/01/17 12:34:08;;;;;;;22.67;14.57;;;4.30;99.90;;;;;;5126275;27;20480;-72
2021/01/17 12:36:35;;;;;;;27.00;16.20;;;4.30;99.90;;;;;;5114064;27;20490;-73
2021/01/17 12:39:02;;;;;;;24.40;14.30;;;4.20;99.90;;;;;;5128540;28;20516;-73
2021/01/17 12:41:33;;;;;;;27.67;17.33;;;4.20;99.90;;;;;;5117937;27;20427;-73
2021/01/17 12:43:59;;;;;;;28.10;15.40;;;4.30;99.90;;;;;;5134342;27;20870;-73
2021/01/17 12:46:25;;;;;;;28.80;18.00;;;4.30;99.90;;;;;;5114451;27;20448;-73
2021/01/17 12:48:51;;;;;;;30.43;16.60;;;4.20;99.90;;;;;;5122047;27;20413;-73
2021/01/17 12:51:17;;;;;;;35.37;16.97;;;4.20;99.90;;;;;;5131284;28;20418;-72